sensor_id;sensor_type;location;lat;lon;timestamp;P1;durP1;ratioP1;P2;durP2;ratioP2
28577;SDS011;15769;52.248;15.818;2022-11-15T00:00:25;93.90;;;54.80;;
28577;SDS011;15769;52.248;15.818;2022-11-15T00:05:47;88.30;;;50.35;;
28577;SDS011;15769;52.248;15.818;2022-11-15T00:11:10;107.10;;;60.00;;
28577;SDS011;15769;52.248;15.818;2022-11-15T00:16:35;127.32;;;73.32;;
28577;SDS011;15769;52.248;15.818;2022-11-15T00:21:57;105.63;;;57.45;;
28577;SDS011;15769;52.248;15.818;2022-11-15T00:27:18;78.07;;;46.60;;
28577;SDS011;15769;52.248;15.818;2022-11-15T00:32:39;71.43;;;41.72;;
28577;SDS011;15769;52.248;15.818;2022-11-15T00:38:00;71.65;;;44.55;;
28577;SDS011;15769;52.248;15.818;2022-11-15T00:43:23;65.03;;;38.97;;
28577;SDS011;15769;52.248;15.818;2022-11-15T00:48:44;65.25;;;39.63;;
28577;SDS011;15769;52.248;15.818;2022-11-15T00:54:08;63.97;;;40.83;;
28577;SDS011;15769;52.248;15.818;2022-11-15T00:59:32;64.68;;;40.97;;
28577;SDS011;15769;52.248;15.818;2022-11-15T01:04:53;71.15;;;43.85;;
28577;SDS011;15769;52.248;15.818;2022-11-15T01:10:14;74.07;;;45.90;;
28577;SDS011;15769;52.248;15.818;2022-11-15T01:15:38;71.50;;;43.80;;
28577;SDS011;15769;52.248;15.818;2022-11-15T01:21:04;77.35;;;47.13;;
28577;SDS011;15769;52.248;15.818;2022-11-15T01:26:32;62.83;;;40.25;;
28577;SDS011;15769;52.248;15.818;2022-11-15T01:31:53;74.68;;;46.22;;
28577;SDS011;15769;52.248;15.818;2022-11-15T01:37:14;65.13;;;42.55;;
28577;SDS011;15769;52.248;15.818;2022-11-15T01:42:37;70.22;;;43.60;;
28577;SDS011;15769;52.248;15.818;2022-11-15T01:47:58;65.85;;;41.17;;
28577;SDS011;15769;52.248;15.818;2022-11-15T01:53:19;68.43;;;41.10;;
28577;SDS011;15769;52.248;15.818;2022-11-15T01:58:42;75.10;;;44.92;;
28577;SDS011;15769;52.248;15.818;2022-11-15T02:04:06;69.82;;;43.20;;
28577;SDS011;15769;52.248;15.818;2022-11-15T02:09:40;70.32;;;44.25;;
28577;SDS011;15769;52.248;15.818;2022-11-15T02:15:17;64.03;;;41.30;;
28577;SDS011;15769;52.248;15.818;2022-11-15T02:20:41;69.68;;;44.22;;
28577;SDS011;15769;52.248;15.818;2022-11-15T02:32:03;65.75;;;42.03;;
28577;SDS011;15769;52.248;15.818;2022-11-15T02:43:04;72.85;;;46.45;;
28577;SDS011;15769;52.248;15.818;2022-11-15T02:48:49;80.70;;;48.35;;
28577;SDS011;15769;52.248;15.818;2022-11-15T02:54:15;81.90;;;48.05;;
28577;SDS011;15769;52.248;15.818;2022-11-15T03:00:01;80.32;;;48.00;;
28577;SDS011;15769;52.248;15.818;2022-11-15T03:11:19;71.93;;;44.05;;
28577;SDS011;15769;52.248;15.818;2022-11-15T03:22:09;65.75;;;41.65;;
28577;SDS011;15769;52.248;15.818;2022-11-15T03:27:37;65.63;;;40.75;;
28577;SDS011;15769;52.248;15.818;2022-11-15T03:33:01;69.32;;;42.88;;
28577;SDS011;15769;52.248;15.818;2022-11-15T03:38:24;65.22;;;41.10;;
28577;SDS011;15769;52.248;15.818;2022-11-15T03:43:56;66.47;;;39.38;;
28577;SDS011;15769;52.248;15.818;2022-11-15T03:49:26;63.70;;;39.53;;
28577;SDS011;15769;52.248;15.818;2022-11-15T03:54:49;67.55;;;40.85;;
28577;SDS011;15769;52.248;15.818;2022-11-15T04:00:15;63.42;;;39.38;;
28577;SDS011;15769;52.248;15.818;2022-11-15T04:05:36;59.95;;;37.63;;
28577;SDS011;15769;52.248;15.818;2022-11-15T04:10:58;63.03;;;41.53;;
28577;SDS011;15769;52.248;15.818;2022-11-15T04:16:29;63.15;;;39.80;;
28577;SDS011;15769;52.248;15.818;2022-11-15T04:21:54;61.05;;;39.00;;
28577;SDS011;15769;52.248;15.818;2022-11-15T04:27:33;55.92;;;36.53;;
28577;SDS011;15769;52.248;15.818;2022-11-15T04:32:56;64.95;;;39.67;;
28577;SDS011;15769;52.248;15.818;2022-11-15T04:38:32;57.92;;;37.28;;
28577;SDS011;15769;52.248;15.818;2022-11-15T04:44:01;61.45;;;38.03;;
28577;SDS011;15769;52.248;15.818;2022-11-15T04:49:25;59.60;;;37.50;;
28577;SDS011;15769;52.248;15.818;2022-11-15T04:54:47;66.43;;;39.70;;
28577;SDS011;15769;52.248;15.818;2022-11-15T05:00:13;56.58;;;35.85;;
28577;SDS011;15769;52.248;15.818;2022-11-15T05:05:52;56.33;;;35.28;;
28577;SDS011;15769;52.248;15.818;2022-11-15T05:11:14;58.47;;;37.72;;
28577;SDS011;15769;52.248;15.818;2022-11-15T05:16:36;61.35;;;38.90;;
28577;SDS011;15769;52.248;15.818;2022-11-15T05:21:58;57.75;;;36.42;;
28577;SDS011;15769;52.248;15.818;2022-11-15T05:27:27;62.10;;;39.22;;
28577;SDS011;15769;52.248;15.818;2022-11-15T05:32:48;59.60;;;38.10;;
28577;SDS011;15769;52.248;15.818;2022-11-15T05:38:10;53.97;;;34.70;;
28577;SDS011;15769;52.248;15.818;2022-11-15T05:43:31;64.75;;;40.35;;
28577;SDS011;15769;52.248;15.818;2022-11-15T05:48:56;58.13;;;37.58;;
28577;SDS011;15769;52.248;15.818;2022-11-15T05:54:21;63.25;;;39.80;;
28577;SDS011;15769;52.248;15.818;2022-11-15T05:59:44;57.10;;;35.70;;
28577;SDS011;15769;52.248;15.818;2022-11-15T06:05:13;57.75;;;35.92;;
28577;SDS011;15769;52.248;15.818;2022-11-15T06:11:02;57.85;;;37.55;;
28577;SDS011;15769;52.248;15.818;2022-11-15T06:16:50;59.00;;;38.65;;
28577;SDS011;15769;52.248;15.818;2022-11-15T06:22:17;62.17;;;38.97;;
28577;SDS011;15769;52.248;15.818;2022-11-15T06:28:30;56.63;;;36.53;;
28577;SDS011;15769;52.248;15.818;2022-11-15T06:33:53;60.85;;;39.38;;
28577;SDS011;15769;52.248;15.818;2022-11-15T06:39:16;71.28;;;42.00;;
28577;SDS011;15769;52.248;15.818;2022-11-15T06:44:37;67.05;;;40.97;;
28577;SDS011;15769;52.248;15.818;2022-11-15T06:49:58;58.72;;;38.63;;
28577;SDS011;15769;52.248;15.818;2022-11-15T06:55:19;54.97;;;36.45;;
28577;SDS011;15769;52.248;15.818;2022-11-15T07:00:40;65.70;;;39.72;;
28577;SDS011;15769;52.248;15.818;2022-11-15T07:06:02;57.60;;;36.38;;
28577;SDS011;15769;52.248;15.818;2022-11-15T07:11:27;61.05;;;39.53;;
28577;SDS011;15769;52.248;15.818;2022-11-15T07:16:48;57.28;;;35.75;;
28577;SDS011;15769;52.248;15.818;2022-11-15T07:22:09;67.07;;;39.15;;
28577;SDS011;15769;52.248;15.818;2022-11-15T07:27:30;61.58;;;37.83;;
28577;SDS011;15769;52.248;15.818;2022-11-15T07:32:57;63.63;;;38.65;;
28577;SDS011;15769;52.248;15.818;2022-11-15T07:38:20;65.00;;;39.38;;
28577;SDS011;15769;52.248;15.818;2022-11-15T07:43:42;70.97;;;41.23;;
28577;SDS011;15769;52.248;15.818;2022-11-15T07:49:03;66.05;;;41.50;;
28577;SDS011;15769;52.248;15.818;2022-11-15T07:54:25;63.35;;;39.35;;
28577;SDS011;15769;52.248;15.818;2022-11-15T07:59:46;67.88;;;40.38;;
28577;SDS011;15769;52.248;15.818;2022-11-15T08:05:10;70.68;;;41.80;;
28577;SDS011;15769;52.248;15.818;2022-11-15T08:10:32;71.10;;;42.90;;
28577;SDS011;15769;52.248;15.818;2022-11-15T08:16:00;77.28;;;44.55;;
28577;SDS011;15769;52.248;15.818;2022-11-15T08:21:22;75.07;;;42.47;;
28577;SDS011;15769;52.248;15.818;2022-11-15T08:26:44;78.68;;;42.03;;
28577;SDS011;15769;52.248;15.818;2022-11-15T08:32:05;77.25;;;42.95;;
28577;SDS011;15769;52.248;15.818;2022-11-15T08:37:34;79.05;;;43.72;;
28577;SDS011;15769;52.248;15.818;2022-11-15T08:42:56;77.03;;;41.40;;
28577;SDS011;15769;52.248;15.818;2022-11-15T08:48:19;81.10;;;43.33;;
28577;SDS011;15769;52.248;15.818;2022-11-15T08:53:40;82.85;;;44.13;;
28577;SDS011;15769;52.248;15.818;2022-11-15T08:59:01;81.88;;;42.25;;
28577;SDS011;15769;52.248;15.818;2022-11-15T09:04:23;81.63;;;44.47;;
28577;SDS011;15769;52.248;15.818;2022-11-15T09:10:01;88.07;;;45.33;;
28577;SDS011;15769;52.248;15.818;2022-11-15T09:15:32;110.30;;;55.35;;
28577;SDS011;15769;52.248;15.818;2022-11-15T09:21:33;106.53;;;52.65;;
28577;SDS011;15769;52.248;15.818;2022-11-15T09:27:01;83.35;;;45.25;;
28577;SDS011;15769;52.248;15.818;2022-11-15T09:32:29;80.07;;;42.90;;
28577;SDS011;15769;52.248;15.818;2022-11-15T09:38:08;123.53;;;54.35;;
28577;SDS011;15769;52.248;15.818;2022-11-15T09:49:13;90.90;;;44.67;;
28577;SDS011;15769;52.248;15.818;2022-11-15T09:54:47;92.22;;;46.90;;
28577;SDS011;15769;52.248;15.818;2022-11-15T10:00:24;83.78;;;45.20;;
28577;SDS011;15769;52.248;15.818;2022-11-15T10:05:55;83.43;;;44.30;;
28577;SDS011;15769;52.248;15.818;2022-11-15T10:11:07;77.43;;;39.40;;
28577;SDS011;15769;52.248;15.818;2022-11-15T10:23:16;85.37;;;46.13;;
28577;SDS011;15769;52.248;15.818;2022-11-15T10:29:22;86.40;;;46.28;;
28577;SDS011;15769;52.248;15.818;2022-11-15T10:34:35;91.20;;;50.55;;
28577;SDS011;15769;52.248;15.818;2022-11-15T10:44:44;88.22;;;47.08;;
28577;SDS011;15769;52.248;15.818;2022-11-15T10:55:59;81.45;;;47.10;;
28577;SDS011;15769;52.248;15.818;2022-11-15T11:01:28;81.25;;;44.95;;
28577;SDS011;15769;52.248;15.818;2022-11-15T11:07:19;80.60;;;46.28;;
28577;SDS011;15769;52.248;15.818;2022-11-15T11:12:54;78.03;;;45.83;;
28577;SDS011;15769;52.248;15.818;2022-11-15T11:18:10;81.97;;;46.05;;
28577;SDS011;15769;52.248;15.818;2022-11-15T11:23:53;70.40;;;39.75;;
28577;SDS011;15769;52.248;15.818;2022-11-15T11:29:35;72.15;;;42.40;;
28577;SDS011;15769;52.248;15.818;2022-11-15T11:51:45;80.82;;;45.92;;
28577;SDS011;15769;52.248;15.818;2022-11-15T11:57:05;81.38;;;48.03;;
28577;SDS011;15769;52.248;15.818;2022-11-15T12:02:28;64.88;;;39.80;;
28577;SDS011;15769;52.248;15.818;2022-11-15T12:07:36;73.97;;;43.17;;
28577;SDS011;15769;52.248;15.818;2022-11-15T12:14:12;71.22;;;41.92;;
28577;SDS011;15769;52.248;15.818;2022-11-15T12:20:03;65.00;;;39.30;;
28577;SDS011;15769;52.248;15.818;2022-11-15T12:26:11;61.45;;;38.05;;
28577;SDS011;15769;52.248;15.818;2022-11-15T12:31:57;54.67;;;33.50;;
28577;SDS011;15769;52.248;15.818;2022-11-15T12:38:54;67.13;;;39.38;;
28577;SDS011;15769;52.248;15.818;2022-11-15T12:51:01;63.78;;;38.38;;
28577;SDS011;15769;52.248;15.818;2022-11-15T12:57:49;71.40;;;41.67;;
28577;SDS011;15769;52.248;15.818;2022-11-15T13:16:10;56.03;;;32.72;;
28577;SDS011;15769;52.248;15.818;2022-11-15T13:21:49;67.40;;;41.90;;
28577;SDS011;15769;52.248;15.818;2022-11-15T13:27:19;72.30;;;44.55;;
28577;SDS011;15769;52.248;15.818;2022-11-15T13:32:34;80.90;;;46.50;;
28577;SDS011;15769;52.248;15.818;2022-11-15T13:37:54;62.63;;;37.70;;
28577;SDS011;15769;52.248;15.818;2022-11-15T13:44:03;83.30;;;49.72;;
28577;SDS011;15769;52.248;15.818;2022-11-15T13:50:42;70.55;;;42.72;;
28577;SDS011;15769;52.248;15.818;2022-11-15T13:57:00;64.25;;;39.83;;
28577;SDS011;15769;52.248;15.818;2022-11-15T14:02:50;63.22;;;37.78;;
28577;SDS011;15769;52.248;15.818;2022-11-15T14:14:55;61.75;;;37.20;;
28577;SDS011;15769;52.248;15.818;2022-11-15T14:20:33;59.75;;;36.40;;
28577;SDS011;15769;52.248;15.818;2022-11-15T14:26:28;60.03;;;34.97;;
28577;SDS011;15769;52.248;15.818;2022-11-15T14:31:48;58.72;;;36.67;;
28577;SDS011;15769;52.248;15.818;2022-11-15T14:37:28;69.78;;;37.88;;
28577;SDS011;15769;52.248;15.818;2022-11-15T14:42:37;137.73;;;57.20;;
28577;SDS011;15769;52.248;15.818;2022-11-15T14:47:50;131.07;;;57.88;;
28577;SDS011;15769;52.248;15.818;2022-11-15T14:52:57;123.63;;;52.45;;
28577;SDS011;15769;52.248;15.818;2022-11-15T14:58:24;104.03;;;46.58;;
28577;SDS011;15769;52.248;15.818;2022-11-15T15:04:12;85.38;;;43.63;;
28577;SDS011;15769;52.248;15.818;2022-11-15T15:09:35;75.83;;;40.97;;
28577;SDS011;15769;52.248;15.818;2022-11-15T15:14:50;74.55;;;40.53;;
28577;SDS011;15769;52.248;15.818;2022-11-15T15:25:26;88.60;;;47.80;;
28577;SDS011;15769;52.248;15.818;2022-11-15T15:31:29;111.60;;;70.55;;
28577;SDS011;15769;52.248;15.818;2022-11-15T15:36:39;164.45;;;86.57;;
28577;SDS011;15769;52.248;15.818;2022-11-15T15:42:00;216.68;;;97.40;;
28577;SDS011;15769;52.248;15.818;2022-11-15T15:47:20;221.48;;;99.63;;
28577;SDS011;15769;52.248;15.818;2022-11-15T15:52:27;221.68;;;104.07;;
28577;SDS011;15769;52.248;15.818;2022-11-15T15:57:42;241.18;;;131.18;;
28577;SDS011;15769;52.248;15.818;2022-11-15T16:03:04;164.10;;;93.72;;
28577;SDS011;15769;52.248;15.818;2022-11-15T16:08:21;122.40;;;70.40;;
28577;SDS011;15769;52.248;15.818;2022-11-15T16:14:23;121.80;;;62.40;;
28577;SDS011;15769;52.248;15.818;2022-11-15T16:19:58;134.00;;;73.47;;
28577;SDS011;15769;52.248;15.818;2022-11-15T16:31:11;188.63;;;91.72;;
28577;SDS011;15769;52.248;15.818;2022-11-15T16:36:19;155.75;;;75.85;;
28577;SDS011;15769;52.248;15.818;2022-11-15T16:42:01;153.25;;;69.18;;
28577;SDS011;15769;52.248;15.818;2022-11-15T16:47:20;140.35;;;66.40;;
28577;SDS011;15769;52.248;15.818;2022-11-15T16:52:26;147.73;;;70.18;;
28577;SDS011;15769;52.248;15.818;2022-11-15T16:57:30;122.95;;;61.53;;
28577;SDS011;15769;52.248;15.818;2022-11-15T17:02:34;126.03;;;60.60;;
28577;SDS011;15769;52.248;15.818;2022-11-15T17:07:57;115.43;;;58.90;;
28577;SDS011;15769;52.248;15.818;2022-11-15T17:13:01;114.00;;;58.05;;
28577;SDS011;15769;52.248;15.818;2022-11-15T17:18:43;123.25;;;62.42;;
28577;SDS011;15769;52.248;15.818;2022-11-15T17:23:59;96.93;;;50.58;;
28577;SDS011;15769;52.248;15.818;2022-11-15T17:29:04;98.40;;;49.45;;
28577;SDS011;15769;52.248;15.818;2022-11-15T17:34:31;116.95;;;59.88;;
28577;SDS011;15769;52.248;15.818;2022-11-15T17:40:42;112.63;;;56.03;;
28577;SDS011;15769;52.248;15.818;2022-11-15T17:45:44;124.37;;;60.77;;
28577;SDS011;15769;52.248;15.818;2022-11-15T17:50:58;156.85;;;68.45;;
28577;SDS011;15769;52.248;15.818;2022-11-15T17:56:05;128.43;;;61.40;;
28577;SDS011;15769;52.248;15.818;2022-11-15T18:06:18;135.15;;;64.40;;
28577;SDS011;15769;52.248;15.818;2022-11-15T18:11:23;127.72;;;59.60;;
28577;SDS011;15769;52.248;15.818;2022-11-15T18:16:27;128.75;;;58.42;;
28577;SDS011;15769;52.248;15.818;2022-11-15T18:21:34;113.43;;;54.47;;
28577;SDS011;15769;52.248;15.818;2022-11-15T18:26:58;112.47;;;55.75;;
28577;SDS011;15769;52.248;15.818;2022-11-15T18:32:02;121.57;;;63.30;;
28577;SDS011;15769;52.248;15.818;2022-11-15T18:37:08;141.73;;;68.03;;
28577;SDS011;15769;52.248;15.818;2022-11-15T18:42:11;123.97;;;59.85;;
28577;SDS011;15769;52.248;15.818;2022-11-15T18:47:13;142.35;;;71.05;;
28577;SDS011;15769;52.248;15.818;2022-11-15T18:52:16;126.43;;;62.58;;
28577;SDS011;15769;52.248;15.818;2022-11-15T18:57:19;101.75;;;52.30;;
28577;SDS011;15769;52.248;15.818;2022-11-15T19:02:21;117.22;;;58.65;;
28577;SDS011;15769;52.248;15.818;2022-11-15T19:07:24;129.53;;;61.53;;
28577;SDS011;15769;52.248;15.818;2022-11-15T19:12:26;144.05;;;63.55;;
28577;SDS011;15769;52.248;15.818;2022-11-15T19:17:31;146.27;;;64.70;;
28577;SDS011;15769;52.248;15.818;2022-11-15T19:22:37;141.60;;;64.13;;
28577;SDS011;15769;52.248;15.818;2022-11-15T19:28:11;131.65;;;57.28;;
28577;SDS011;15769;52.248;15.818;2022-11-15T19:33:28;110.55;;;51.03;;
28577;SDS011;15769;52.248;15.818;2022-11-15T19:38:33;114.55;;;51.33;;
28577;SDS011;15769;52.248;15.818;2022-11-15T19:43:37;113.28;;;50.72;;
28577;SDS011;15769;52.248;15.818;2022-11-15T19:48:39;129.60;;;58.97;;
28577;SDS011;15769;52.248;15.818;2022-11-15T19:53:42;86.13;;;45.73;;
28577;SDS011;15769;52.248;15.818;2022-11-15T19:58:44;105.57;;;49.50;;
28577;SDS011;15769;52.248;15.818;2022-11-15T20:03:47;101.53;;;53.10;;
28577;SDS011;15769;52.248;15.818;2022-11-15T20:13:57;114.15;;;54.50;;
28577;SDS011;15769;52.248;15.818;2022-11-15T20:19:00;120.78;;;56.88;;
28577;SDS011;15769;52.248;15.818;2022-11-15T20:24:03;120.45;;;58.35;;
28577;SDS011;15769;52.248;15.818;2022-11-15T20:29:06;130.85;;;61.22;;
28577;SDS011;15769;52.248;15.818;2022-11-15T20:34:11;122.88;;;56.72;;
28577;SDS011;15769;52.248;15.818;2022-11-15T20:39:13;108.03;;;54.55;;
28577;SDS011;15769;52.248;15.818;2022-11-15T20:44:16;130.15;;;61.65;;
28577;SDS011;15769;52.248;15.818;2022-11-15T20:49:18;133.90;;;64.57;;
28577;SDS011;15769;52.248;15.818;2022-11-15T20:54:21;107.53;;;55.37;;
28577;SDS011;15769;52.248;15.818;2022-11-15T20:59:26;117.53;;;53.10;;
28577;SDS011;15769;52.248;15.818;2022-11-15T21:04:28;106.97;;;52.30;;
28577;SDS011;15769;52.248;15.818;2022-11-15T21:09:31;100.55;;;50.13;;
28577;SDS011;15769;52.248;15.818;2022-11-15T21:15:01;108.97;;;47.60;;
28577;SDS011;15769;52.248;15.818;2022-11-15T21:20:09;98.18;;;47.35;;
28577;SDS011;15769;52.248;15.818;2022-11-15T21:25:12;96.50;;;46.00;;
28577;SDS011;15769;52.248;15.818;2022-11-15T21:30:15;90.53;;;44.38;;
28577;SDS011;15769;52.248;15.818;2022-11-15T21:35:20;90.60;;;42.80;;
28577;SDS011;15769;52.248;15.818;2022-11-15T21:40:24;99.95;;;47.38;;
28577;SDS011;15769;52.248;15.818;2022-11-15T21:45:27;94.05;;;43.40;;
28577;SDS011;15769;52.248;15.818;2022-11-15T21:50:29;90.63;;;44.58;;
28577;SDS011;15769;52.248;15.818;2022-11-15T21:55:32;91.43;;;43.30;;
28577;SDS011;15769;52.248;15.818;2022-11-15T22:00:34;94.13;;;44.00;;
28577;SDS011;15769;52.248;15.818;2022-11-15T22:05:56;94.28;;;42.40;;
28577;SDS011;15769;52.248;15.818;2022-11-15T22:11:02;116.72;;;48.20;;
28577;SDS011;15769;52.248;15.818;2022-11-15T22:16:07;101.65;;;44.38;;
28577;SDS011;15769;52.248;15.818;2022-11-15T22:21:14;102.78;;;43.75;;
28577;SDS011;15769;52.248;15.818;2022-11-15T22:26:20;100.57;;;44.13;;
28577;SDS011;15769;52.248;15.818;2022-11-15T22:31:42;117.90;;;49.17;;
28577;SDS011;15769;52.248;15.818;2022-11-15T22:36:45;112.35;;;47.25;;
28577;SDS011;15769;52.248;15.818;2022-11-15T22:42:07;124.22;;;50.45;;
28577;SDS011;15769;52.248;15.818;2022-11-15T22:47:11;112.80;;;47.38;;
28577;SDS011;15769;52.248;15.818;2022-11-15T22:52:14;133.77;;;50.97;;
28577;SDS011;15769;52.248;15.818;2022-11-15T22:57:19;140.73;;;55.03;;
28577;SDS011;15769;52.248;15.818;2022-11-15T23:02:32;132.18;;;51.50;;
28577;SDS011;15769;52.248;15.818;2022-11-15T23:07:35;147.73;;;58.47;;
28577;SDS011;15769;52.248;15.818;2022-11-15T23:13:11;148.45;;;57.97;;
28577;SDS011;15769;52.248;15.818;2022-11-15T23:18:19;161.63;;;62.58;;
28577;SDS011;15769;52.248;15.818;2022-11-15T23:23:21;158.05;;;59.45;;
28577;SDS011;15769;52.248;15.818;2022-11-15T23:28:24;156.63;;;57.17;;
28577;SDS011;15769;52.248;15.818;2022-11-15T23:33:28;142.13;;;54.08;;
28577;SDS011;15769;52.248;15.818;2022-11-15T23:38:49;148.17;;;54.43;;
28577;SDS011;15769;52.248;15.818;2022-11-15T23:43:53;155.05;;;57.33;;
28577;SDS011;15769;52.248;15.818;2022-11-15T23:48:56;151.48;;;53.78;;
28577;SDS011;15769;52.248;15.818;2022-11-15T23:53:59;164.27;;;58.27;;
28577;SDS011;15769;52.248;15.818;2022-11-15T23:59:02;132.77;;;50.93;;
